Time;durP1;ratioP1;P1;durP2;ratioP2;P2;SDS_P1;SDS_P2;PMS_P1;PMS_P2;Temp;Humidity;BMP_temperature;BMP_pressure;BME280_temperature;BME280_humidity;BME280_pressure;Samples;Min_cycle;Max_cycle;Signal;HPM_P1;HPM_P2
2022/08/08 00:02:19;;;;;;;5.93;4.20;;;17.50;99.90;;;;;;5085394;28;20177;-73
2022/08/08 00:04:57;;;;;;;7.28;5.35;;;17.40;99.90;;;;;;5095144;28;20200;-73
2022/08/08 00:07:38;;;;;;;6.22;4.90;;;17.40;99.90;;;;;;5092561;28;20200;-73
2022/08/08 00:10:31;;;;;;;6.30;4.03;;;17.30;99.90;;;;;;5077154;28;20594;-73
2022/08/08 00:13:11;;;;;;;9.40;4.68;;;17.40;99.90;;;;;;5072521;28;20188;-73
2022/08/08 00:15:42;;;;;;;6.22;4.88;;;17.40;99.90;;;;;;5092457;28;20179;-73
2022/08/08 00:18:21;;;;;;;5.10;4.30;;;17.30;99.90;;;;;;5094650;28;20187;-73
2022/08/08 00:20:55;;;;;;;6.22;4.25;;;17.30;99.90;;;;;;5093288;28;20648;-73
2022/08/08 00:23:20;;;;;;;5.05;4.15;;;17.30;99.90;;;;;;5084442;28;20210;-74
2022/08/08 00:25:51;;;;;;;6.15;4.10;;;17.30;99.90;;;;;;5094362;28;20269;-73
2022/08/08 00:28:25;;;;;;;6.18;5.07;;;17.30;99.90;;;;;;5091859;28;20311;-73
2022/08/08 00:30:54;;;;;;;7.35;4.82;;;17.40;99.90;;;;;;5074402;28;20181;-73
2022/08/08 00:33:25;;;;;;;10.70;5.35;;;17.40;99.90;;;;;;5086868;28;20176;-73
2022/08/08 00:36:12;;;;;;;7.45;5.47;;;17.30;99.90;;;;;;5075876;28;20185;-73
2022/08/08 00:38:53;;;;;;;10.88;6.75;;;17.20;99.90;;;;;;5082827;28;20201;-73
2022/08/08 00:41:46;;;;;;;7.47;5.35;;;17.20;99.90;;;;;;5089643;28;20564;-73
2022/08/08 00:44:30;;;;;;;8.15;5.97;;;17.20;99.90;;;;;;5066398;28;20254;-73
2022/08/08 00:47:14;;;;;;;10.13;6.30;;;17.20;99.90;;;;;;5074884;28;20185;-73
2022/08/08 00:50:17;;;;;;;7.38;4.85;;;17.20;99.90;;;;;;5076086;28;20185;-73
2022/08/08 00:53:09;;;;;;;6.47;4.78;;;17.20;99.90;;;;;;5068923;28;20261;-73
2022/08/08 00:55:53;;;;;;;9.30;4.97;;;17.10;99.90;;;;;;5082762;28;20181;-73
2022/08/08 00:58:40;;;;;;;10.70;5.93;;;17.20;99.90;;;;;;5078020;28;20268;-73
2022/08/08 01:01:28;;;;;;;10.48;5.05;;;17.20;99.90;;;;;;5067427;28;20203;-73
2022/08/08 01:04:39;;;;;;;6.07;4.97;;;17.10;99.90;;;;;;5092388;28;20180;-73
2022/08/08 01:07:26;;;;;;;8.60;5.43;;;17.00;99.90;;;;;;5065238;28;20185;-72
2022/08/08 01:10:27;;;;;;;7.47;4.88;;;16.90;99.90;;;;;;5056821;28;20177;-73
2022/08/08 01:13:15;;;;;;;7.75;5.22;;;16.90;99.90;;;;;;5082236;28;20200;-73
2022/08/08 01:16:24;;;;;;;8.27;5.72;;;16.90;99.90;;;;;;5072088;28;20537;-73
2022/08/08 01:18:56;;;;;;;8.93;5.70;;;17.00;99.90;;;;;;5079732;28;20182;-73
2022/08/08 01:22:09;;;;;;;11.30;6.13;;;16.90;99.90;;;;;;5068134;28;20208;-73
2022/08/08 01:25:06;;;;;;;9.88;5.63;;;16.80;99.90;;;;;;4987733;28;20246;-73
2022/08/08 01:27:38;;;;;;;10.88;6.53;;;16.80;99.90;;;;;;5082191;28;20205;-73
2022/08/08 01:30:25;;;;;;;8.20;5.93;;;16.70;99.90;;;;;;5087289;28;20185;-73
2022/08/08 01:33:13;;;;;;;7.65;5.72;;;16.80;99.90;;;;;;5072742;28;20176;-75
2022/08/08 01:36:00;;;;;;;6.97;5.95;;;16.80;99.90;;;;;;5093600;28;20180;-72
2022/08/08 01:38:29;;;;;;;7.10;5.57;;;16.70;99.90;;;;;;5081991;28;20637;-72
2022/08/08 01:41:17;;;;;;;10.00;6.35;;;16.60;99.90;;;;;;5075144;28;20204;-73
2022/08/08 01:43:55;;;;;;;8.35;6.43;;;16.60;99.90;;;;;;5087009;28;20200;-73
2022/08/08 01:46:57;;;;;;;10.07;7.20;;;16.60;99.90;;;;;;5086760;28;20184;-73
2022/08/08 01:49:42;;;;;;;9.27;6.85;;;16.50;99.90;;;;;;5079794;28;20199;-73
2022/08/08 01:52:43;;;;;;;15.05;7.35;;;16.50;99.90;;;;;;5089931;28;20183;-72
2022/08/08 01:55:34;;;;;;;12.43;7.45;;;16.60;99.90;;;;;;5075125;28;20272;-72
2022/08/08 01:58:27;;;;;;;7.35;5.95;;;16.50;99.90;;;;;;5064496;28;20651;-73
2022/08/08 02:01:46;;;;;;;10.65;8.13;;;16.50;99.90;;;;;;5083216;28;20287;-73
2022/08/08 02:04:40;;;;;;;9.43;6.03;;;16.50;99.90;;;;;;5028722;28;20290;-74
2022/08/08 02:07:22;;;;;;;14.27;8.65;;;16.50;99.90;;;;;;5030111;28;20195;-73
2022/08/08 02:09:59;;;;;;;13.02;6.60;;;16.50;99.90;;;;;;5074012;28;20196;-73
2022/08/08 02:12:33;;;;;;;9.10;6.45;;;16.50;99.90;;;;;;5088414;28;20653;-73
2022/08/08 02:15:38;;;;;;;9.85;7.72;;;16.40;99.90;;;;;;5072829;28;20187;-73
2022/08/08 02:18:34;;;;;;;12.45;8.70;;;16.40;99.90;;;;;;5091344;28;20188;-73
2022/08/08 02:24:16;;;;;;;9.90;7.07;;;16.40;99.90;;;;;;5090941;28;20664;-72
2022/08/08 02:27:02;;;;;;;10.32;7.50;;;16.40;99.90;;;;;;5091957;28;20177;-73
2022/08/08 02:29:58;;;;;;;14.20;7.90;;;16.30;99.90;;;;;;5074520;28;20184;-73
2022/08/08 02:32:47;;;;;;;15.30;7.53;;;16.30;99.90;;;;;;5083854;28;20180;-72
2022/08/08 02:35:53;;;;;;;11.73;7.40;;;16.20;99.90;;;;;;5074080;28;20176;-73
2022/08/08 02:38:48;;;;;;;12.13;9.10;;;16.20;99.90;;;;;;5092717;28;20176;-73
2022/08/08 02:41:41;;;;;;;14.35;7.53;;;16.20;99.90;;;;;;5079025;28;20203;-73
2022/08/08 02:44:44;;;;;;;12.68;7.75;;;16.20;99.90;;;;;;5088812;28;20185;-72
2022/08/08 02:47:31;;;;;;;14.13;7.75;;;16.10;99.90;;;;;;5073630;28;20180;-76
2022/08/08 02:50:28;;;;;;;12.23;7.93;;;16.10;99.90;;;;;;5085519;28;20181;-73
2022/08/08 02:53:28;;;;;;;13.48;7.65;;;16.10;99.90;;;;;;5084305;28;20176;-73
2022/08/08 02:56:02;;;;;;;11.20;7.38;;;16.10;99.90;;;;;;5064424;28;20286;-73
2022/08/08 02:58:39;;;;;;;14.45;8.15;;;16.00;99.90;;;;;;5074397;28;20184;-72
2022/08/08 03:01:29;;;;;;;16.45;9.15;;;16.00;99.90;;;;;;5089812;28;20196;-73
2022/08/08 03:04:01;;;;;;;11.75;8.18;;;16.00;99.90;;;;;;5070709;28;20639;-73
2022/08/08 03:06:50;;;;;;;16.17;9.90;;;16.10;99.90;;;;;;5053933;28;20177;-73
2022/08/08 03:09:54;;;;;;;20.27;9.68;;;16.00;99.90;;;;;;5067072;28;20189;-73
2022/08/08 03:12:39;;;;;;;14.75;9.00;;;16.00;99.90;;;;;;5091063;28;20187;-72
2022/08/08 03:15:28;;;;;;;17.25;10.00;;;15.90;99.90;;;;;;5077345;28;20173;-75
2022/08/08 03:18:01;;;;;;;14.55;8.45;;;15.90;99.90;;;;;;5081071;28;20287;-73
2022/08/08 03:20:26;;;;;;;11.82;8.45;;;15.80;99.90;;;;;;5092530;28;20288;-74
2022/08/08 03:22:53;;;;;;;19.67;10.95;;;15.80;99.90;;;;;;5059736;28;20272;-73
2022/08/08 03:25:26;;;;;;;15.88;10.15;;;15.70;99.90;;;;;;5069476;28;20219;-72
2022/08/08 03:28:05;;;;;;;15.93;10.57;;;15.70;99.90;;;;;;5082623;28;20532;-72
2022/08/08 03:30:31;;;;;;;15.25;9.70;;;15.70;99.90;;;;;;5084877;28;20215;-73
2022/08/08 03:35:41;;;;;;;12.90;8.38;;;15.70;99.90;;;;;;5090442;28;20237;-72
2022/08/08 03:38:08;;;;;;;14.57;8.82;;;15.70;99.90;;;;;;5083662;28;20181;-73
2022/08/08 03:40:34;;;;;;;14.88;10.43;;;15.70;99.90;;;;;;5057625;28;20582;-72
2022/08/08 03:43:00;;;;;;;16.67;9.55;;;15.70;99.90;;;;;;5091491;28;20208;-72
2022/08/08 03:45:28;;;;;;;16.95;9.80;;;15.60;99.90;;;;;;5074071;28;20215;-72
2022/08/08 03:47:58;;;;;;;14.65;9.63;;;15.60;99.90;;;;;;5082573;28;20631;-72
2022/08/08 03:50:25;;;;;;;17.45;10.50;;;15.60;99.90;;;;;;5091545;28;20548;-72
2022/08/08 03:52:52;;;;;;;14.80;9.80;;;15.60;99.90;;;;;;5053606;28;20189;-72
2022/08/08 03:55:20;;;;;;;16.50;9.93;;;15.60;99.90;;;;;;5071689;28;20192;-73
2022/08/08 03:57:51;;;;;;;15.65;10.55;;;15.60;99.90;;;;;;5092627;28;20756;-72
2022/08/08 04:00:19;;;;;;;15.88;10.35;;;15.50;99.90;;;;;;5094100;28;20204;-72
2022/08/08 04:03:03;;;;;;;19.70;10.40;;;15.50;99.90;;;;;;5058988;28;20196;-72
2022/08/08 04:05:31;;;;;;;19.88;10.75;;;15.50;99.90;;;;;;5092650;28;20196;-72
2022/08/08 04:07:59;;;;;;;20.42;10.95;;;15.50;99.90;;;;;;5078790;28;20189;-72
2022/08/08 04:10:25;;;;;;;15.98;9.23;;;15.40;99.90;;;;;;5092763;28;20177;-73
2022/08/08 04:12:52;;;;;;;20.02;10.60;;;15.50;99.90;;;;;;5077251;28;20189;-74
2022/08/08 04:15:18;;;;;;;16.27;10.10;;;15.50;99.90;;;;;;5090147;28;20599;-72
2022/08/08 04:17:45;;;;;;;21.60;11.95;;;15.50;99.90;;;;;;5057471;28;20205;-73
2022/08/08 04:20:11;;;;;;;14.45;10.43;;;15.50;99.90;;;;;;5070659;28;20711;-72
2022/08/08 04:22:37;;;;;;;17.08;10.82;;;15.60;99.90;;;;;;5058109;28;20533;-73
2022/08/08 04:25:04;;;;;;;20.48;12.20;;;15.60;99.90;;;;;;5070588;28;20185;-72
2022/08/08 04:27:30;;;;;;;17.77;11.20;;;15.50;99.90;;;;;;5094440;28;20204;-73
2022/08/08 04:29:56;;;;;;;16.60;12.38;;;15.50;99.90;;;;;;5074735;28;20547;-73
2022/08/08 04:32:21;;;;;;;23.55;12.65;;;15.50;99.90;;;;;;5069101;28;20184;-74
2022/08/08 04:34:47;;;;;;;18.60;11.77;;;15.60;99.90;;;;;;5059296;28;20192;-73
2022/08/08 04:37:13;;;;;;;28.15;12.00;;;15.60;99.90;;;;;;5084355;28;20551;-72
2022/08/08 04:39:39;;;;;;;15.77;10.60;;;15.70;99.90;;;;;;5076304;28;20559;-73
2022/08/08 04:42:05;;;;;;;16.25;10.85;;;15.70;99.90;;;;;;5094028;28;20215;-73
2022/08/08 04:44:31;;;;;;;23.95;12.18;;;15.60;99.90;;;;;;5055243;28;20212;-73
2022/08/08 04:46:57;;;;;;;16.55;11.00;;;15.60;99.90;;;;;;5056872;28;20279;-73
2022/08/08 04:49:23;;;;;;;17.92;12.07;;;15.70;99.90;;;;;;5075714;28;20256;-72
2022/08/08 04:51:48;;;;;;;20.05;11.23;;;15.70;99.90;;;;;;5094860;28;20350;-73
2022/08/08 04:54:14;;;;;;;16.00;11.23;;;15.70;99.90;;;;;;5080726;28;20190;-73
2022/08/08 04:56:40;;;;;;;20.55;12.15;;;15.70;99.90;;;;;;5089103;28;20182;-73
2022/08/08 04:59:05;;;;;;;19.98;12.18;;;15.80;99.90;;;;;;5075169;28;20564;-73
2022/08/08 05:01:31;;;;;;;20.20;11.75;;;15.90;99.90;;;;;;5050523;28;20246;-73
2022/08/08 05:03:57;;;;;;;20.77;11.75;;;16.00;99.90;;;;;;5094709;28;20656;-73
2022/08/08 05:06:22;;;;;;;19.05;12.05;;;16.10;99.90;;;;;;5073935;28;20216;-73
2022/08/08 05:08:48;;;;;;;18.42;11.68;;;16.10;99.90;;;;;;5094013;28;20184;-73
2022/08/08 05:11:17;;;;;;;16.42;11.55;;;16.10;99.90;;;;;;5094392;28;20180;-73
2022/08/08 05:13:43;;;;;;;18.92;11.02;;;16.10;99.90;;;;;;5090103;28;20602;-72
2022/08/08 05:16:09;;;;;;;14.25;9.20;;;16.10;99.90;;;;;;5072228;28;20181;-72
2022/08/08 05:18:36;;;;;;;12.88;9.77;;;16.00;99.90;;;;;;5087337;28;20611;-72
2022/08/08 05:21:03;;;;;;;16.42;10.48;;;16.00;99.90;;;;;;5058656;28;20299;-72
2022/08/08 05:23:29;;;;;;;17.90;10.85;;;16.10;99.90;;;;;;5055990;28;20184;-72
2022/08/08 05:25:56;;;;;;;16.10;9.57;;;16.10;99.90;;;;;;5085246;28;20189;-73
2022/08/08 05:28:21;;;;;;;14.85;9.57;;;16.10;99.90;;;;;;5074829;28;20645;-74
2022/08/08 05:30:47;;;;;;;15.63;11.52;;;16.00;99.90;;;;;;5081179;28;20195;-73
2022/08/08 05:33:14;;;;;;;18.20;11.50;;;16.00;99.90;;;;;;5075263;28;20181;-74
2022/08/08 05:35:41;;;;;;;16.85;10.57;;;16.10;99.90;;;;;;5059470;28;20184;-72
2022/08/08 05:38:12;;;;;;;18.27;10.43;;;16.00;99.90;;;;;;5086167;28;20227;-73
2022/08/08 05:40:44;;;;;;;18.52;11.55;;;16.00;99.90;;;;;;5075529;28;20756;-73
2022/08/08 05:43:24;;;;;;;17.65;10.35;;;15.90;99.90;;;;;;5091271;28;20641;-73
2022/08/08 05:45:51;;;;;;;23.17;12.40;;;16.00;99.90;;;;;;5060814;28;20174;-72
2022/08/08 05:48:17;;;;;;;18.45;9.93;;;16.10;99.90;;;;;;5091338;28;20194;-72
2022/08/08 05:50:43;;;;;;;18.55;10.90;;;16.20;99.90;;;;;;5092770;28;20693;-73
2022/08/08 05:53:09;;;;;;;20.67;10.27;;;16.30;99.90;;;;;;5065431;28;20542;-73
2022/08/08 05:55:35;;;;;;;16.30;11.00;;;16.20;99.90;;;;;;5074955;28;20189;-73
2022/08/08 05:58:04;;;;;;;18.13;10.93;;;16.30;99.90;;;;;;5074614;28;20210;-73
2022/08/08 06:00:31;;;;;;;15.98;10.20;;;16.50;99.90;;;;;;5092709;28;20208;-73
2022/08/08 06:03:11;;;;;;;18.38;11.20;;;16.70;99.90;;;;;;5092214;28;20668;-73
2022/08/08 06:06:10;;;;;;;13.60;8.60;;;16.80;99.90;;;;;;5057549;28;20272;-73
2022/08/08 06:08:48;;;;;;;14.93;9.32;;;17.10;99.90;;;;;;5048385;28;20204;-72
2022/08/08 06:11:14;;;;;;;17.02;10.07;;;17.20;99.90;;;;;;5074399;28;20204;-73
2022/08/08 06:13:40;;;;;;;17.10;10.65;;;17.30;99.90;;;;;;5074363;28;20196;-73
2022/08/08 06:16:09;;;;;;;13.38;9.88;;;17.30;99.90;;;;;;5086337;28;20181;-73
2022/08/08 06:18:36;;;;;;;16.63;10.25;;;17.10;99.90;;;;;;5092155;28;20248;-72
2022/08/08 06:21:02;;;;;;;13.13;9.18;;;17.20;99.90;;;;;;5074979;28;20219;-73
2022/08/08 06:23:28;;;;;;;14.88;8.52;;;17.40;99.90;;;;;;5092746;28;20581;-73
2022/08/08 06:26:05;;;;;;;12.73;9.27;;;17.30;99.90;;;;;;5074031;28;20176;-73
2022/08/08 06:28:33;;;;;;;15.20;8.93;;;17.20;99.90;;;;;;5063936;28;20181;-74
2022/08/08 06:31:01;;;;;;;16.55;9.30;;;17.30;99.90;;;;;;5069487;28;20185;-73
2022/08/08 06:33:55;;;;;;;14.20;9.32;;;17.30;99.90;;;;;;5086709;28;20177;-73
2022/08/08 06:36:34;;;;;;;16.70;10.02;;;17.30;99.90;;;;;;5084218;28;20184;-73
2022/08/08 06:39:01;;;;;;;18.23;9.25;;;17.20;99.90;;;;;;5089810;28;20207;-73
2022/08/08 06:41:30;;;;;;;13.07;8.15;;;17.40;99.90;;;;;;5066886;28;20221;-72
2022/08/08 06:43:59;;;;;;;13.15;9.18;;;17.50;99.90;;;;;;5090759;28;20180;-73
2022/08/08 06:46:25;;;;;;;15.68;8.98;;;17.40;99.90;;;;;;5057695;28;20241;-73
2022/08/08 06:48:51;;;;;;;13.50;8.55;;;17.60;99.90;;;;;;5079940;28;21548;-73
2022/08/08 06:51:18;;;;;;;13.20;7.72;;;17.70;99.90;;;;;;5047984;28;20193;-72
2022/08/08 06:53:44;;;;;;;13.15;8.13;;;17.70;99.90;;;;;;5073669;28;20185;-73
2022/08/08 06:56:10;;;;;;;10.88;7.93;;;17.70;99.90;;;;;;5058053;28;20204;-73
2022/08/08 06:58:35;;;;;;;12.63;8.80;;;17.90;99.90;;;;;;5082832;28;20193;-73
2022/08/08 07:01:05;;;;;;;12.85;7.05;;;18.00;99.90;;;;;;5037493;28;20696;-73
2022/08/08 07:03:49;;;;;;;16.58;8.45;;;18.00;99.90;;;;;;5092659;28;20259;-73
2022/08/08 07:06:20;;;;;;;12.05;8.07;;;18.20;99.90;;;;;;5086686;28;20283;-73
2022/08/08 07:08:50;;;;;;;13.50;8.45;;;18.10;99.90;;;;;;5089592;28;20260;-73
2022/08/08 07:11:19;;;;;;;9.70;7.35;;;17.90;99.90;;;;;;5080500;28;20194;-73
2022/08/08 07:13:50;;;;;;;10.82;7.32;;;18.00;99.90;;;;;;5065837;28;20203;-73
2022/08/08 07:16:30;;;;;;;11.27;6.97;;;18.00;99.90;;;;;;5083918;28;20184;-73
2022/08/08 07:19:06;;;;;;;7.47;6.10;;;18.10;99.90;;;;;;5089550;28;20211;-73
2022/08/08 07:21:54;;;;;;;17.02;7.63;;;18.30;99.90;;;;;;5071732;28;20212;-73
2022/08/08 07:24:48;;;;;;;10.02;6.47;;;18.50;99.90;;;;;;5091776;28;20255;-73
2022/08/08 07:27:16;;;;;;;13.68;6.80;;;18.70;99.90;;;;;;5054550;28;20239;-73
2022/08/08 07:29:43;;;;;;;13.18;7.88;;;18.80;99.90;;;;;;5083081;28;20264;-73
2022/08/08 07:32:11;;;;;;;8.45;6.40;;;19.10;99.90;;;;;;5077894;28;20215;-74
2022/08/08 07:34:40;;;;;;;10.75;7.30;;;19.50;99.90;;;;;;5094466;28;20177;-73
2022/08/08 07:37:07;;;;;;;9.07;6.50;;;19.70;99.90;;;;;;5075614;28;20740;-73
2022/08/08 07:39:34;;;;;;;9.25;6.03;;;19.70;99.90;;;;;;5075565;28;20176;-73
2022/08/08 07:42:00;;;;;;;9.55;5.75;;;20.20;99.90;;;;;;5095117;28;20205;-74
2022/08/08 07:44:27;;;;;;;9.68;5.40;;;21.30;99.90;;;;;;5093146;28;20187;-74
2022/08/08 07:46:53;;;;;;;8.05;4.80;;;22.40;99.90;;;;;;5072902;28;20185;-74
2022/08/08 07:49:19;;;;;;;6.10;4.25;;;23.10;99.90;;;;;;5092150;28;20271;-74
2022/08/08 07:51:45;;;;;;;6.32;4.63;;;24.10;99.90;;;;;;5092580;28;20603;-73
2022/08/08 07:54:38;;;;;;;8.45;5.88;;;24.90;99.90;;;;;;5090163;28;20213;-74
2022/08/08 07:57:25;;;;;;;6.20;4.20;;;26.00;99.90;;;;;;5089985;28;20626;-74
2022/08/08 08:00:08;;;;;;;7.55;4.20;;;27.40;99.90;;;;;;5090233;28;20221;-73
2022/08/08 08:02:59;;;;;;;11.82;3.88;;;28.60;99.90;;;;;;5094355;28;20271;-73
2022/08/08 08:05:27;;;;;;;6.90;3.83;;;29.50;99.90;;;;;;5093456;28;20324;-73
2022/08/08 08:07:59;;;;;;;4.65;4.25;;;29.80;99.90;;;;;;5094653;28;20265;-73
2022/08/08 08:10:27;;;;;;;6.85;4.10;;;29.10;99.90;;;;;;5090641;28;20188;-73
2022/08/08 08:13:19;;;;;;;5.63;4.70;;;29.00;99.90;;;;;;5091263;28;20184;-73
2022/08/08 08:15:49;;;;;;;4.72;3.42;;;28.70;99.90;;;;;;5091400;28;20176;-75
2022/08/08 08:18:17;;;;;;;5.60;3.50;;;29.10;99.90;;;;;;5089192;28;20196;-75
2022/08/08 08:20:44;;;;;;;10.98;4.68;;;28.00;99.90;;;;;;5092717;28;20728;-73
2022/08/08 08:23:09;;;;;;;5.35;4.50;;;27.30;99.90;;;;;;5089252;28;20192;-74
2022/08/08 08:25:35;;;;;;;4.90;3.90;;;27.20;99.90;;;;;;5062901;28;20564;-75
2022/08/08 08:28:02;;;;;;;5.25;3.35;;;26.90;99.90;;;;;;5095021;28;20191;-74
2022/08/08 08:30:27;;;;;;;5.35;4.15;;;27.70;99.90;;;;;;5067598;28;20203;-74
2022/08/08 08:32:53;;;;;;;4.00;3.33;;;28.10;99.90;;;;;;5060048;28;20583;-73
2022/08/08 08:35:19;;;;;;;4.05;3.40;;;28.90;99.90;;;;;;5093167;28;20192;-73
2022/08/08 08:37:45;;;;;;;4.18;2.92;;;29.70;99.90;;;;;;5049714;28;20204;-74
2022/08/08 08:40:12;;;;;;;4.88;4.43;;;29.90;99.90;;;;;;5070131;28;20231;-73
2022/08/08 08:42:39;;;;;;;3.45;3.10;;;29.00;99.90;;;;;;5092762;28;20187;-74
2022/08/08 08:45:06;;;;;;;3.60;3.30;;;29.50;99.90;;;;;;5071690;28;20229;-75
2022/08/08 08:47:33;;;;;;;3.92;3.05;;;29.80;99.90;;;;;;5081165;28;20265;-73
2022/08/08 08:49:59;;;;;;;7.47;3.78;;;29.20;99.90;;;;;;5081627;28;20176;-73
2022/08/08 08:52:25;;;;;;;6.75;3.15;;;29.30;99.90;;;;;;5049016;28;20330;-77
2022/08/08 08:54:53;;;;;;;4.07;3.40;;;30.00;99.90;;;;;;5062583;28;20173;-76
2022/08/08 08:57:19;;;;;;;3.45;3.20;;;28.80;99.90;;;;;;5074754;28;20184;-74
2022/08/08 08:59:48;;;;;;;3.70;3.40;;;28.50;99.90;;;;;;5066483;28;20233;-70
2022/08/08 09:02:20;;;;;;;7.47;2.97;;;29.00;99.90;;;;;;5092531;28;20305;-71
2022/08/08 09:04:47;;;;;;;3.05;2.42;;;28.80;99.90;;;;;;5092972;28;20273;-73
2022/08/08 09:07:18;;;;;;;4.82;3.22;;;29.80;99.90;;;;;;5059026;28;20194;-70
2022/08/08 09:09:49;;;;;;;3.40;2.88;;;29.70;99.90;;;;;;5091598;28;20184;-72
2022/08/08 09:12:17;;;;;;;6.18;2.88;;;29.70;99.90;;;;;;5092368;28;20722;-71
2022/08/08 09:14:44;;;;;;;4.97;3.10;;;30.10;99.90;;;;;;5085624;28;20236;-73
2022/08/08 09:17:12;;;;;;;8.70;3.78;;;28.90;99.90;;;;;;5087273;28;20538;-72
2022/08/08 09:19:39;;;;;;;5.72;3.38;;;27.90;99.90;;;;;;5092660;28;20590;-72
2022/08/08 09:22:05;;;;;;;5.72;3.50;;;28.00;99.90;;;;;;5075084;28;20294;-73
2022/08/08 09:24:34;;;;;;;9.82;3.25;;;27.90;99.90;;;;;;5088847;28;20197;-73
2022/08/08 09:27:07;;;;;;;4.00;2.97;;;26.70;99.90;;;;;;5057055;28;20592;-72
2022/08/08 09:29:40;;;;;;;3.33;3.03;;;26.20;99.90;;;;;;5092412;28;20186;-72
2022/08/08 09:32:09;;;;;;;5.32;2.97;;;25.40;99.90;;;;;;5082995;28;20187;-71
2022/08/08 09:34:37;;;;;;;5.57;3.08;;;25.10;99.90;;;;;;5054055;28;20184;-72
2022/08/08 09:37:09;;;;;;;3.67;2.90;;;24.90;99.90;;;;;;5074497;28;20197;-71
2022/08/08 09:39:41;;;;;;;9.30;2.53;;;24.80;99.90;;;;;;5081727;28;20286;-69
2022/08/08 09:42:12;;;;;;;5.22;2.60;;;24.90;99.90;;;;;;5092456;28;20567;-72
2022/08/08 09:44:44;;;;;;;5.00;2.53;;;24.90;99.90;;;;;;5093531;28;20212;-69
2022/08/08 09:47:13;;;;;;;3.22;3.00;;;24.50;99.90;;;;;;5091194;28;20188;-67
2022/08/08 09:49:41;;;;;;;2.95;2.67;;;24.40;99.90;;;;;;5088275;28;20181;-67
2022/08/08 09:52:07;;;;;;;4.78;3.50;;;24.20;99.90;;;;;;5074933;28;20193;-68
2022/08/08 09:54:43;;;;;;;5.57;3.13;;;23.80;99.90;;;;;;5086347;28;20549;-67
2022/08/08 09:57:10;;;;;;;3.58;2.85;;;23.80;99.90;;;;;;5087322;28;20580;-75
2022/08/08 09:59:41;;;;;;;13.35;4.45;;;23.70;99.90;;;;;;5083367;28;20184;-66
2022/08/08 10:02:18;;;;;;;3.05;2.58;;;23.70;99.90;;;;;;5091627;28;20254;-70
2022/08/08 10:04:44;;;;;;;5.15;2.65;;;23.90;99.90;;;;;;5072287;28;20537;-68
2022/08/08 10:07:14;;;;;;;2.50;2.05;;;24.20;99.90;;;;;;5061118;28;20293;-68
2022/08/08 10:09:42;;;;;;;6.68;2.60;;;24.50;99.90;;;;;;5089006;28;20180;-67
2022/08/08 10:12:08;;;;;;;3.65;2.78;;;23.90;99.90;;;;;;5073151;28;20661;-66
2022/08/08 10:14:36;;;;;;;3.15;2.67;;;23.60;99.90;;;;;;5093062;28;20646;-65
2022/08/08 10:17:04;;;;;;;1.60;1.48;;;23.70;99.90;;;;;;5087849;28;20207;-66
2022/08/08 10:19:38;;;;;;;5.38;2.17;;;23.80;99.90;;;;;;5069351;28;20208;-66
2022/08/08 10:22:05;;;;;;;2.47;2.28;;;24.00;99.90;;;;;;5081365;28;20232;-67
2022/08/08 10:24:35;;;;;;;3.33;1.98;;;24.00;99.90;;;;;;5074165;28;20180;-67
2022/08/08 10:27:05;;;;;;;3.05;2.22;;;23.80;99.90;;;;;;5081869;28;20184;-66
2022/08/08 10:29:52;;;;;;;3.45;1.73;;;24.00;99.90;;;;;;5057891;28;20181;-68
2022/08/08 10:32:31;;;;;;;3.83;1.73;;;24.30;99.90;;;;;;5092816;28;20218;-69
2022/08/08 10:34:59;;;;;;;2.78;2.58;;;24.10;99.90;;;;;;5079073;28;20177;-66
2022/08/08 10:37:36;;;;;;;5.35;2.50;;;24.10;99.90;;;;;;5092302;28;20212;-65
2022/08/08 10:40:14;;;;;;;2.25;2.05;;;24.20;99.90;;;;;;5065673;28;20568;-67
2022/08/08 10:42:41;;;;;;;2.80;2.20;;;24.10;99.90;;;;;;5074168;28;20257;-66
2022/08/08 10:45:09;;;;;;;2.17;1.98;;;23.90;99.90;;;;;;5081928;28;20523;-69
2022/08/08 10:47:36;;;;;;;2.80;1.90;;;23.80;99.90;;;;;;5087328;28;20653;-66
2022/08/08 10:50:04;;;;;;;2.80;1.50;;;23.80;99.90;;;;;;5088898;28;20549;-74
2022/08/08 10:52:39;;;;;;;2.28;2.08;;;23.70;99.90;;;;;;5071487;28;20181;-76
2022/08/08 10:55:16;;;;;;;3.00;1.80;;;23.70;99.90;;;;;;5089797;28;20179;-70
2022/08/08 10:57:45;;;;;;;6.32;1.73;;;23.60;99.90;;;;;;5065367;28;20267;-73
2022/08/08 11:00:13;;;;;;;1.65;1.55;;;23.60;99.90;;;;;;5086000;28;20260;-75
2022/08/08 11:02:39;;;;;;;1.83;1.73;;;23.60;99.90;;;;;;5067084;28;20238;-72
2022/08/08 11:05:11;;;;;;;3.05;2.28;;;23.70;99.90;;;;;;5089047;28;20180;-74
2022/08/08 11:07:42;;;;;;;2.72;1.67;;;23.70;99.90;;;;;;5080448;28;20215;-77
2022/08/08 11:10:14;;;;;;;1.63;1.52;;;24.00;99.90;;;;;;5088338;28;20179;-71
2022/08/08 11:12:52;;;;;;;1.15;1.15;;;24.00;99.90;;;;;;5088422;28;20172;-71
2022/08/08 11:15:20;;;;;;;5.72;1.45;;;24.00;99.90;;;;;;5070526;28;20954;-72
2022/08/08 11:17:47;;;;;;;5.90;1.38;;;24.20;99.90;;;;;;5067492;28;20181;-67
2022/08/08 11:20:16;;;;;;;2.92;2.60;;;24.30;99.90;;;;;;5062062;28;20185;-72
2022/08/08 11:22:42;;;;;;;1.60;1.50;;;24.10;99.90;;;;;;5071142;28;20176;-72
2022/08/08 11:25:11;;;;;;;1.67;1.58;;;24.00;99.90;;;;;;5091807;28;20180;-73
2022/08/08 11:27:38;;;;;;;1.73;1.63;;;24.20;99.90;;;;;;5084192;28;20340;-71
2022/08/08 11:30:07;;;;;;;1.77;1.67;;;24.10;99.90;;;;;;5070036;28;20168;-70
2022/08/08 11:32:37;;;;;;;1.20;1.20;;;24.00;99.90;;;;;;5083355;28;20189;-71
2022/08/08 11:35:11;;;;;;;1.10;1.10;;;24.10;99.90;;;;;;5086318;28;20637;-72
2022/08/08 11:37:40;;;;;;;3.28;1.60;;;24.30;99.90;;;;;;5095946;28;20263;-71
2022/08/08 11:40:08;;;;;;;3.70;1.70;;;24.40;99.90;;;;;;5094959;28;20249;-71
2022/08/08 11:42:35;;;;;;;1.73;1.65;;;24.50;99.90;;;;;;5094676;28;20220;-71
2022/08/08 11:45:03;;;;;;;1.48;1.38;;;24.60;99.90;;;;;;5059498;28;20180;-70
2022/08/08 11:47:28;;;;;;;1.60;1.50;;;24.50;99.90;;;;;;5091577;28;20181;-69
2022/08/08 11:49:58;;;;;;;2.65;1.30;;;24.40;99.90;;;;;;5086757;28;20212;-68
2022/08/08 11:52:25;;;;;;;2.17;1.95;;;24.10;99.90;;;;;;5092357;28;20185;-69
2022/08/08 11:54:50;;;;;;;5.43;1.40;;;24.10;99.90;;;;;;5094548;28;20192;-69
2022/08/08 11:57:16;;;;;;;2.10;1.40;;;24.30;99.90;;;;;;5075280;28;20659;-68
2022/08/08 12:00:03;;;;;;;2.75;1.58;;;24.30;99.90;;;;;;5094650;28;20267;-69
2022/08/08 12:02:30;;;;;;;4.03;1.83;;;24.30;99.90;;;;;;5091208;28;20235;-68
2022/08/08 12:05:14;;;;;;;1.85;1.75;;;24.50;99.90;;;;;;5095356;28;20268;-67
2022/08/08 12:07:50;;;;;;;2.25;1.45;;;24.40;99.90;;;;;;5087649;28;20211;-68
2022/08/08 12:10:17;;;;;;;2.00;1.90;;;24.30;99.90;;;;;;5094107;28;20184;-67
2022/08/08 12:12:45;;;;;;;1.20;1.10;;;24.40;99.90;;;;;;5092471;28;20177;-67
2022/08/08 12:15:25;;;;;;;2.13;1.65;;;24.40;99.90;;;;;;5079532;28;20192;-67
2022/08/08 12:17:50;;;;;;;1.65;1.55;;;24.40;99.90;;;;;;5080133;28;20180;-67
2022/08/08 12:20:16;;;;;;;1.10;1.10;;;24.60;99.90;;;;;;5072236;28;20542;-68
2022/08/08 12:22:50;;;;;;;1.35;1.33;;;24.60;99.90;;;;;;5076982;28;20256;-68
2022/08/08 12:25:24;;;;;;;1.85;1.75;;;24.70;99.90;;;;;;5086939;28;20185;-67
2022/08/08 12:27:51;;;;;;;1.50;1.40;;;24.80;99.90;;;;;;5095200;28;20241;-67
2022/08/08 12:30:27;;;;;;;1.38;1.27;;;25.00;99.90;;;;;;5067283;28;20185;-67
2022/08/08 12:32:57;;;;;;;1.45;1.45;;;24.80;99.90;;;;;;5094679;28;20198;-67
2022/08/08 12:35:22;;;;;;;3.63;1.30;;;24.60;99.90;;;;;;5094536;28;20724;-68
2022/08/08 12:38:04;;;;;;;2.78;1.50;;;24.60;99.90;;;;;;5076724;28;20282;-68
2022/08/08 12:40:45;;;;;;;1.40;1.30;;;24.90;99.90;;;;;;5086434;28;20177;-69
2022/08/08 12:43:14;;;;;;;2.90;1.52;;;25.10;99.90;;;;;;5077945;28;20641;-68
2022/08/08 12:45:42;;;;;;;1.90;1.58;;;25.00;99.90;;;;;;5073073;28;20192;-68
2022/08/08 12:48:22;;;;;;;2.28;1.50;;;25.30;99.90;;;;;;5075046;28;20181;-69
2022/08/08 12:50:53;;;;;;;0.93;0.93;;;25.50;99.90;;;;;;5073504;28;20582;-68
2022/08/08 12:53:32;;;;;;;0.90;0.90;;;25.70;99.90;;;;;;5058360;28;20189;-68
2022/08/08 12:56:05;;;;;;;2.97;1.27;;;25.80;99.90;;;;;;5090857;28;20188;-68
2022/08/08 12:58:44;;;;;;;1.13;1.13;;;25.70;99.90;;;;;;5076346;28;20199;-68
2022/08/08 13:01:11;;;;;;;3.78;1.98;;;25.50;99.90;;;;;;5083522;28;21328;-68
2022/08/08 13:03:47;;;;;;;1.10;1.10;;;25.40;99.90;;;;;;5076608;28;20185;-68
2022/08/08 13:06:16;;;;;;;1.88;1.77;;;25.40;99.90;;;;;;5087075;28;20630;-68
2022/08/08 13:08:44;;;;;;;1.30;0.98;;;25.20;99.90;;;;;;5091606;28;20237;-68
2022/08/08 13:11:18;;;;;;;1.17;1.13;;;25.20;99.90;;;;;;5084041;28;20234;-69
2022/08/08 13:14:14;;;;;;;3.50;1.30;;;25.30;99.90;;;;;;5082973;28;20180;-68
2022/08/08 13:16:41;;;;;;;3.13;0.88;;;25.40;99.90;;;;;;5088462;28;20275;-68
2022/08/08 13:19:08;;;;;;;1.38;1.35;;;25.40;99.90;;;;;;5080795;28;20196;-68
2022/08/08 13:21:45;;;;;;;1.83;1.73;;;25.10;99.90;;;;;;5089996;28;20219;-67